createdAt,value
2019-04-28T00:03:00.770Z,81.86
2019-04-28T00:08:05.282Z,84.13
2019-04-28T00:13:10.953Z,82.77
2019-04-28T00:18:15.361Z,81.16
2019-04-28T00:23:33.577Z,81.84
2019-04-28T00:28:37.936Z,81.16
2019-04-28T00:33:43.584Z,80.19
2019-04-28T00:38:48.166Z,80.19
2019-04-28T00:43:52.515Z,80.61
2019-04-28T00:48:56.869Z,78.80
2019-04-28T00:54:01.241Z,78.04
2019-04-28T00:59:05.601Z,76.55
2019-04-28T01:04:11.754Z,76.77
2019-04-28T01:09:17.131Z,78.46
2019-04-28T01:14:21.537Z,79.46
2019-04-28T01:19:27.515Z,78.82
2019-04-28T01:24:31.877Z,78.01
2019-04-28T01:29:36.344Z,78.09
2019-04-28T01:34:40.706Z,77.19
2019-04-28T01:39:45.110Z,79.22
2019-04-28T01:44:49.581Z,77.69
2019-04-28T01:49:54.076Z,76.52
2019-04-28T01:55:00.303Z,74.30
2019-04-28T02:00:20.032Z,76.51
2019-04-28T02:05:14.740Z,76.61
2019-04-28T02:10:20.205Z,76.23
2019-04-28T02:15:25.183Z,75.85
2019-04-28T02:20:30.134Z,75.42
2019-04-28T02:25:34.713Z,74.41
2019-04-28T02:30:47.783Z,75.18
2019-04-28T02:35:45.102Z,75.45
2019-04-28T02:40:50.357Z,75.68
2019-04-28T02:45:55.070Z,74.50
2019-04-28T02:51:01.353Z,74.67
2019-04-28T02:56:06.821Z,75.52
2019-04-28T03:01:21.874Z,75.30
2019-04-28T03:06:17.433Z,74.84
2019-04-28T03:11:22.915Z,74.83
2019-04-28T03:16:27.305Z,74.75
2019-04-28T03:21:31.649Z,74.87
2019-04-28T03:26:41.343Z,73.92
2019-04-28T03:32:16.138Z,73.44
2019-04-28T03:37:00.206Z,73.80
2019-04-28T03:42:04.145Z,72.89
2019-04-28T03:47:10.604Z,74.87
2019-04-28T03:52:14.574Z,74.51
2019-04-28T03:57:21.484Z,73.78
2019-04-28T04:02:25.021Z,74.03
2019-04-28T04:07:31.086Z,73.80
2019-04-28T04:12:41.266Z,72.46
2019-04-28T04:18:05.686Z,72.73
2019-04-28T04:23:11.280Z,72.67
2019-04-28T04:28:15.869Z,72.77
2019-04-28T04:33:21.001Z,72.71
2019-04-28T04:38:25.505Z,72.41
2019-04-28T04:43:31.017Z,71.56
2019-04-28T04:48:36.568Z,71.27
2019-04-28T04:53:41.955Z,70.85
2019-04-28T04:58:46.333Z,70.40
2019-04-28T05:03:52.350Z,68.58
2019-04-28T05:08:56.691Z,69.57
2019-04-28T05:14:01.043Z,69.70
2019-04-28T05:19:05.404Z,69.90
2019-04-28T05:24:15.973Z,69.60
2019-04-28T05:29:21.773Z,68.03
2019-04-28T05:34:24.328Z,67.91
2019-04-28T05:39:29.796Z,68.86
2019-04-28T05:44:34.186Z,68.21
2019-04-28T05:49:40.340Z,69.84
2019-04-28T05:54:49.677Z,69.71
2019-04-28T06:00:14.308Z,69.84
2019-04-28T06:05:20.015Z,69.59
2019-04-28T06:10:24.604Z,70.42
2019-04-28T06:15:29.534Z,69.98
2019-04-28T06:20:34.257Z,69.69
2019-04-28T06:25:38.627Z,69.13
2019-04-28T06:30:43.000Z,68.22
2019-04-28T06:35:48.444Z,68.80
2019-04-28T06:40:52.884Z,69.07
2019-04-28T06:45:57.255Z,68.88
2019-04-28T06:51:01.601Z,67.14
2019-04-28T06:56:05.948Z,68.44
2019-04-28T07:01:10.322Z,67.53
2019-04-28T07:06:14.697Z,68.61
2019-04-28T07:11:19.078Z,68.55
2019-04-28T07:16:23.413Z,68.42
2019-04-28T07:21:29.400Z,68.10
2019-04-28T07:26:33.945Z,67.87
2019-04-28T07:31:38.300Z,69.34
2019-04-28T07:36:42.688Z,68.36
2019-04-28T07:41:47.011Z,66.98
2019-04-28T07:46:51.406Z,67.07
2019-04-28T07:52:09.483Z,65.76
2019-04-28T07:57:13.923Z,65.02
2019-04-28T08:02:18.405Z,65.17
2019-04-28T08:07:22.827Z,64.40
2019-04-28T08:12:27.202Z,66.04
2019-04-28T08:17:32.654Z,66.01
2019-04-28T08:22:37.208Z,65.58
2019-04-28T08:27:42.628Z,63.45
2019-04-28T08:32:48.693Z,64.30
2019-04-28T08:37:53.049Z,64.00
2019-04-28T08:42:57.412Z,62.53
2019-04-28T08:48:01.793Z,63.21
2019-04-28T08:53:06.205Z,62.88
2019-04-28T08:58:10.553Z,60.58
2019-04-28T09:03:15.866Z,61.20
2019-04-28T09:08:21.292Z,61.14
2019-04-28T09:13:27.187Z,63.30
2019-04-28T09:18:31.952Z,61.33
2019-04-28T09:23:36.277Z,59.16
2019-04-28T09:28:40.761Z,61.52
2019-04-28T09:33:45.284Z,62.53
2019-04-28T09:38:50.239Z,63.28
2019-04-28T09:43:56.416Z,61.19
2019-04-28T09:49:00.812Z,62.04
2019-04-28T09:54:05.425Z,59.23
2019-04-28T09:59:09.760Z,60.94
2019-04-28T10:04:14.119Z,60.45
2019-04-28T10:09:18.610Z,57.64
2019-04-28T10:14:22.970Z,56.42
2019-04-28T10:19:27.350Z,56.69
2019-04-28T10:24:31.728Z,57.58
2019-04-28T10:29:36.124Z,55.54
2019-04-28T10:34:40.492Z,57.77
2019-04-28T10:40:02.114Z,59.92
2019-04-28T10:45:08.427Z,60.76
2019-04-28T10:50:12.835Z,62.54
2019-04-28T10:55:17.187Z,63.14
2019-04-28T11:00:23.359Z,61.89
2019-04-28T11:05:38.104Z,61.96
2019-04-28T11:10:42.613Z,60.83
2019-04-28T11:15:47.015Z,60.65
2019-04-28T11:20:51.361Z,61.33
2019-04-28T11:25:55.832Z,60.63
2019-04-28T11:31:00.205Z,59.99
2019-04-28T11:36:05.741Z,60.73
2019-04-28T11:41:11.687Z,59.56
2019-04-28T11:46:17.774Z,60.57
2019-04-28T11:51:22.157Z,61.00
2019-04-28T11:56:26.560Z,59.86
2019-04-28T12:01:30.924Z,58.68
2019-04-28T12:06:35.432Z,59.60
2019-04-28T12:11:41.416Z,59.60
2019-04-28T12:17:03.621Z,59.91
2019-04-28T12:22:09.240Z,58.76
2019-04-28T12:27:13.642Z,58.41
2019-04-28T12:32:18.020Z,59.07
2019-04-28T12:37:22.394Z,60.95
2019-04-28T12:42:26.780Z,60.29
2019-04-28T12:47:31.172Z,58.72
2019-04-28T12:52:35.675Z,59.77
2019-04-28T12:57:40.036Z,60.39
2019-04-28T13:03:01.102Z,59.10
2019-04-28T13:08:05.536Z,59.24
2019-04-28T13:13:09.890Z,58.07
2019-04-28T13:18:14.275Z,57.83
2019-04-28T13:23:18.664Z,57.83
2019-04-28T13:28:23.000Z,55.87
2019-04-28T13:33:27.483Z,55.42
2019-04-28T13:38:31.886Z,55.46
2019-04-28T13:43:36.378Z,55.40
2019-04-28T13:48:40.750Z,55.38
2019-04-28T13:53:45.196Z,54.86
2019-04-28T13:58:51.209Z,54.62
2019-04-28T14:04:12.736Z,54.44
2019-04-28T14:09:17.081Z,55.26
2019-04-28T14:14:21.489Z,53.86
2019-04-28T14:19:25.912Z,53.66
2019-04-28T14:24:30.338Z,53.39
2019-04-28T14:29:34.747Z,53.41
2019-04-28T14:34:39.113Z,54.06
2019-04-28T14:39:43.493Z,53.94
2019-04-28T14:44:47.898Z,54.00
2019-04-28T14:49:52.265Z,55.31
2019-04-28T14:54:56.643Z,55.23
2019-04-28T15:00:01.005Z,54.62
2019-04-28T15:05:14.506Z,55.87
2019-04-28T15:10:23.175Z,55.53
2019-04-28T15:15:27.659Z,55.93
2019-04-28T15:20:32.012Z,55.01
2019-04-28T15:25:36.370Z,56.28
2019-04-28T15:30:40.724Z,55.61
2019-04-28T15:35:45.161Z,55.47
2019-04-28T15:40:49.600Z,56.53
2019-04-28T15:45:53.967Z,55.73
2019-04-28T15:50:58.360Z,55.45
2019-04-28T15:56:04.881Z,55.68
2019-04-28T16:01:09.426Z,56.23
2019-04-28T16:06:13.824Z,56.60
2019-04-28T16:11:18.265Z,57.50
2019-04-28T16:16:22.774Z,57.30
2019-04-28T16:21:27.161Z,56.22
2019-04-28T16:26:32.623Z,57.45
2019-04-28T16:31:37.036Z,57.49
2019-04-28T16:36:41.622Z,57.12
2019-04-28T16:41:45.965Z,56.79
2019-04-28T16:46:50.786Z,56.73
2019-04-28T16:51:55.429Z,56.03
2019-04-28T16:57:07.543Z,56.64
2019-04-28T17:02:19.414Z,57.34
2019-04-28T17:07:24.885Z,57.56
2019-04-28T17:12:29.272Z,56.98
2019-04-28T17:17:33.644Z,57.91
2019-04-28T17:22:38.043Z,58.36
2019-04-28T17:27:42.556Z,57.54
2019-04-28T17:32:47.194Z,57.22
2019-04-28T17:37:51.675Z,58.19
2019-04-28T17:42:56.029Z,59.12
2019-04-28T17:48:02.013Z,58.52
2019-04-28T17:53:07.440Z,59.41
2019-04-28T17:58:11.857Z,59.58
2019-04-28T18:03:23.823Z,60.18
2019-04-28T18:08:28.365Z,60.51
2019-04-28T18:13:32.723Z,61.28
2019-04-28T18:18:56.899Z,61.39
2019-04-28T18:24:01.333Z,61.86
2019-04-28T18:29:05.787Z,63.78
2019-04-28T18:34:11.822Z,63.50
2019-04-28T18:39:36.289Z,63.55
2019-04-28T18:44:40.700Z,63.68
2019-04-28T18:49:45.135Z,64.00
2019-04-28T18:54:49.512Z,64.63
2019-04-28T18:59:53.859Z,64.16
2019-04-28T19:04:59.267Z,65.10
2019-04-28T19:10:08.457Z,66.23
2019-04-28T19:15:23.990Z,66.56
2019-04-28T19:20:28.840Z,65.79
2019-04-28T19:25:35.300Z,67.17
2019-04-28T19:30:40.601Z,67.64
2019-04-28T19:35:44.965Z,68.52
2019-04-28T19:40:49.373Z,69.58
2019-04-28T19:45:56.594Z,69.44
2019-04-28T19:51:01.010Z,69.83
2019-04-28T19:56:07.091Z,69.80
2019-04-28T20:01:15.849Z,69.03
2019-04-28T20:06:20.237Z,69.56
2019-04-28T20:11:24.649Z,71.03
2019-04-28T20:16:29.047Z,70.88
2019-04-28T20:21:33.681Z,70.87
2019-04-28T20:26:38.334Z,71.71
2019-04-28T20:31:42.882Z,72.83
2019-04-28T20:36:51.694Z,71.74
2019-04-28T20:41:57.788Z,71.78
2019-04-28T20:47:02.191Z,71.24
2019-04-28T20:52:06.728Z,70.59
2019-04-28T20:57:11.117Z,70.41
2019-04-28T21:02:15.548Z,71.47
2019-04-28T21:07:20.005Z,72.46
2019-04-28T21:12:24.966Z,70.69
2019-04-28T21:17:29.364Z,72.49
2019-04-28T21:22:33.712Z,72.83
2019-04-28T21:27:38.110Z,72.75
2019-04-28T21:32:42.741Z,72.85
2019-04-28T21:37:47.119Z,73.80
2019-04-28T21:42:53.332Z,72.55
2019-04-28T21:47:57.813Z,72.22
2019-04-28T21:53:02.251Z,72.17
2019-04-28T21:58:06.722Z,71.74
2019-04-28T22:03:11.163Z,71.75
2019-04-28T22:08:15.584Z,72.50
2019-04-28T22:13:20.006Z,72.26
2019-04-28T22:18:25.447Z,73.17
2019-04-28T22:23:37.181Z,73.46
2019-04-28T22:28:41.550Z,74.29
2019-04-28T22:33:46.131Z,74.44
2019-04-28T22:38:50.490Z,74.33
2019-04-28T22:43:54.896Z,75.22
2019-04-28T22:49:00.902Z,75.14
2019-04-28T22:54:07.264Z,75.54
2019-04-28T22:59:22.351Z,75.30
2019-04-28T23:04:33.812Z,74.94
2019-04-28T23:09:38.251Z,74.72
2019-04-28T23:14:42.618Z,74.64
2019-04-28T23:19:47.084Z,75.08
2019-04-28T23:24:51.503Z,74.98
2019-04-28T23:29:55.856Z,74.92
2019-04-28T23:35:00.251Z,75.54
2019-04-28T23:40:06.169Z,76.35
2019-04-28T23:45:12.296Z,76.08
2019-04-28T23:50:18.554Z,75.24
2019-04-28T23:55:23.115Z,76.02
